Slavyansk-na-Kubani, Russia
Current Conditions -  °F | °C
As of 4:00 AM on Thursday 27 Nov 2014 (Local Time) from URKA Reporting Station
Overcast Overcast  
Wind Chill: 20°   Ceiling: 600
Heat Index: 30°   Visibility: 6mi
Dew Point: 28°   Wind: 13mph
Humidity: 93%   Direction: 60°ENE
Pressure: 30.06"   Gusts: 20mph
Location:  45.25°N, 38.12°E
Report Text: URKA 270100Z 06006G09MPS 030V090 9999 OVC006 M01/M02 Q1018 RMKQFE760/1013
Loading
Personal Weather Stations






























Interactive Weather Map New forecast layout! Learn more

10-Day Weather Forecast

Advertisements
Track Severe Weather on mobile